< < Back
Terminal Aerodrome Forecast


Current Version              Previous Versions:   1  2  3  4  5  6  7  8  9  

Terminal Aerodrome Forecast

339
FTUS42 KILM 300532 CCA
TAFFLO
TAF COR
KFLO 300532Z 3006/0106 14004KT P6SM BKN006
     FM301000 09004KT 4SM BR OVC004
     FM301500 11008KT 4SM -DZ OVC013
     FM301800 12007KT P6SM VCSH BKN050
     FM010000 14006KT P6SM OVC007=



Latest METAR

860
SAUS70 KWBC 300700 RRM
MTRFLO
METAR KFLO 300653Z 17005KT 8SM OVC006 20/19 A2999 RMK AO2 SLP153
T02000189


USA.gov is the U.S. government's official web portal to all federal, state and local government web resources and services.